createdAt,value
2024-05-09T00:00:54.142Z,21.78
2024-05-09T00:06:18.637Z,21.78
2024-05-09T00:11:23.406Z,21.76
2024-05-09T00:16:28.154Z,21.73
2024-05-09T00:21:32.628Z,21.72
2024-05-09T00:26:37.434Z,21.71
2024-05-09T00:31:42.342Z,21.72
2024-05-09T00:36:46.922Z,21.71
2024-05-09T00:41:51.733Z,21.71
2024-05-09T00:46:57.306Z,21.71
2024-05-09T00:52:02.622Z,21.70
2024-05-09T00:57:07.337Z,21.70
2024-05-09T01:02:12.640Z,21.68
2024-05-09T01:07:17.382Z,21.67
2024-05-09T01:12:21.904Z,21.69
2024-05-09T01:17:27.000Z,21.67
2024-05-09T01:22:31.774Z,21.65
2024-05-09T01:27:39.242Z,21.65
2024-05-09T01:32:43.765Z,21.63
2024-05-09T01:37:48.468Z,21.63
2024-05-09T01:42:56.536Z,21.63
2024-05-09T01:48:01.474Z,21.61
2024-05-09T01:53:06.722Z,21.60
2024-05-09T01:58:11.350Z,21.60
2024-05-09T02:03:17.760Z,21.61
2024-05-09T02:08:24.118Z,21.59
2024-05-09T02:13:28.595Z,21.59
2024-05-09T02:18:33.283Z,21.59
2024-05-09T02:23:38.037Z,21.60
2024-05-09T02:28:42.286Z,21.59
2024-05-09T02:33:47.477Z,21.57
2024-05-09T02:38:52.391Z,21.57
2024-05-09T02:43:56.827Z,21.58
2024-05-09T02:49:01.422Z,21.56
2024-05-09T02:54:07.444Z,21.55
2024-05-09T02:59:12.104Z,21.56
2024-05-09T03:04:18.456Z,21.54
2024-05-09T03:09:23.899Z,21.56
2024-05-09T03:14:28.971Z,21.55
2024-05-09T03:19:35.117Z,21.53
2024-05-09T03:24:39.949Z,21.52
2024-05-09T03:29:44.363Z,21.53
2024-05-09T03:34:48.951Z,21.52
2024-05-09T03:39:53.331Z,21.50
2024-05-09T03:44:58.188Z,21.50
2024-05-09T03:50:04.386Z,21.49
2024-05-09T03:55:12.868Z,21.49
2024-05-09T04:00:25.322Z,21.48
2024-05-09T04:05:35.378Z,21.49
2024-05-09T04:10:40.083Z,21.48
2024-05-09T04:15:47.571Z,21.49
2024-05-09T04:20:52.200Z,21.48
2024-05-09T04:25:56.953Z,21.48
2024-05-09T04:31:01.724Z,21.48
2024-05-09T04:36:06.988Z,21.48
2024-05-09T04:41:11.783Z,21.47
2024-05-09T04:46:16.242Z,21.46
2024-05-09T04:51:20.663Z,21.46
2024-05-09T04:56:25.472Z,21.46
2024-05-09T05:01:30.254Z,21.48
2024-05-09T05:06:34.883Z,21.51
2024-05-09T05:11:39.390Z,21.54
2024-05-09T05:16:44.291Z,21.60
2024-05-09T05:21:48.933Z,21.63
2024-05-09T05:26:53.813Z,21.67
2024-05-09T05:31:58.182Z,21.73
2024-05-09T05:37:03.518Z,21.78
2024-05-09T05:42:08.183Z,21.79
2024-05-09T05:47:12.958Z,21.80
2024-05-09T05:52:18.036Z,21.85
2024-05-09T05:57:22.642Z,21.88
2024-05-09T06:02:27.257Z,21.89
2024-05-09T06:07:32.000Z,21.92
2024-05-09T06:12:36.589Z,21.99
2024-05-09T06:17:41.521Z,22.03
2024-05-09T06:22:46.732Z,22.06
2024-05-09T06:27:51.308Z,22.06
2024-05-09T06:32:55.778Z,22.07
2024-05-09T06:38:00.423Z,22.12
2024-05-09T06:43:05.487Z,22.16
2024-05-09T06:48:10.814Z,22.14
2024-05-09T06:53:16.428Z,22.17
2024-05-09T06:58:21.123Z,22.20
2024-05-09T07:03:25.939Z,22.24
2024-05-09T07:08:31.063Z,22.26
2024-05-09T07:13:35.832Z,22.27
2024-05-09T07:18:43.915Z,22.28
2024-05-09T07:23:48.801Z,22.32
2024-05-09T07:28:53.943Z,22.33
2024-05-09T07:34:00.040Z,22.33
2024-05-09T07:39:06.510Z,22.35
2024-05-09T07:44:14.074Z,22.38
2024-05-09T07:51:31.682Z,22.40
2024-05-09T07:54:43.954Z,22.44
2024-05-09T07:59:48.655Z,22.47
2024-05-09T08:04:53.581Z,22.44
2024-05-09T08:09:58.397Z,22.48
2024-05-09T08:15:02.920Z,22.45
2024-05-09T08:20:08.642Z,22.50
2024-05-09T08:25:14.714Z,22.50
2024-05-09T08:30:25.273Z,22.51
2024-05-09T08:35:37.217Z,22.52
2024-05-09T08:40:42.207Z,22.52
2024-05-09T08:45:47.151Z,22.51
2024-05-09T08:50:52.510Z,22.52
2024-05-09T08:56:01.674Z,22.52
2024-05-09T09:01:07.476Z,22.56
2024-05-09T09:06:14.120Z,22.53
2024-05-09T09:11:18.808Z,22.53
2024-05-09T09:16:33.402Z,22.49
2024-05-09T09:21:38.413Z,22.51
2024-05-09T09:26:45.562Z,22.51
2024-05-09T09:31:59.155Z,22.48
2024-05-09T09:37:05.688Z,22.48
2024-05-09T09:42:12.042Z,22.47
2024-05-09T09:47:17.351Z,22.47
2024-05-09T09:52:22.121Z,22.45
2024-05-09T09:57:28.143Z,22.44
2024-05-09T10:02:32.932Z,22.45
2024-05-09T10:07:39.523Z,22.45
2024-05-09T10:12:53.183Z,22.44
2024-05-09T10:18:06.580Z,22.42
2024-05-09T10:23:25.150Z,22.41
2024-05-09T10:28:30.175Z,22.40
2024-05-09T10:33:41.403Z,22.36
2024-05-09T10:38:45.983Z,22.36
2024-05-09T10:43:50.779Z,22.35
2024-05-09T10:48:55.508Z,22.32
2024-05-09T10:54:00.175Z,22.31
2024-05-09T10:59:05.131Z,22.30
2024-05-09T11:04:10.111Z,22.30
2024-05-09T11:09:14.760Z,22.28
2024-05-09T11:14:19.610Z,22.28
2024-05-09T11:19:24.517Z,22.27
2024-05-09T11:24:29.457Z,22.27
2024-05-09T11:29:40.434Z,22.27
2024-05-09T11:34:45.116Z,22.26
2024-05-09T11:39:49.600Z,22.27
2024-05-09T11:44:54.563Z,22.23
2024-05-09T11:49:59.916Z,22.23
2024-05-09T11:55:08.373Z,22.24
2024-05-09T12:00:18.252Z,22.23
2024-05-09T12:05:30.430Z,22.22
2024-05-09T12:10:36.556Z,22.22
2024-05-09T12:15:44.346Z,22.22
2024-05-09T12:20:49.345Z,22.21
2024-05-09T12:25:53.961Z,22.21
2024-05-09T12:30:58.651Z,22.21
2024-05-09T12:36:03.132Z,22.21
2024-05-09T12:41:08.619Z,22.21
2024-05-09T12:46:13.245Z,22.21
2024-05-09T12:51:18.026Z,22.20
2024-05-09T12:56:22.763Z,22.20
2024-05-09T13:01:27.245Z,22.19
2024-05-09T13:06:32.114Z,22.17
2024-05-09T13:11:36.715Z,22.18
2024-05-09T13:16:41.370Z,22.16
2024-05-09T13:21:46.249Z,22.17
2024-05-09T13:26:50.990Z,22.17
2024-05-09T13:31:55.633Z,22.18
2024-05-09T13:37:00.346Z,22.16
2024-05-09T13:42:05.604Z,22.17
2024-05-09T13:47:10.336Z,22.16
2024-05-09T13:52:14.998Z,22.17
2024-05-09T13:57:22.371Z,22.16
2024-05-09T14:02:27.455Z,22.16
2024-05-09T14:07:32.447Z,22.16
2024-05-09T14:12:37.242Z,22.16
2024-05-09T14:17:41.725Z,22.17
2024-05-09T14:22:46.344Z,22.17
2024-05-09T14:27:51.179Z,22.17
2024-05-09T14:32:55.839Z,22.16
2024-05-09T14:38:00.246Z,22.15
2024-05-09T14:43:05.245Z,22.14
2024-05-09T14:48:10.406Z,22.15
2024-05-09T14:53:15.097Z,22.15
2024-05-09T14:58:19.807Z,22.15
2024-05-09T15:03:24.600Z,22.15
2024-05-09T15:08:29.252Z,22.13
2024-05-09T15:13:33.934Z,22.14
2024-05-09T15:18:41.375Z,22.15
2024-05-09T15:23:47.515Z,22.17
2024-05-09T15:28:55.651Z,22.16
2024-05-09T15:34:00.309Z,22.15
2024-05-09T15:39:05.543Z,22.17
2024-05-09T15:44:13.514Z,22.17
2024-05-09T15:49:18.154Z,22.17
2024-05-09T15:54:25.007Z,22.16
2024-05-09T15:59:30.311Z,22.16
2024-05-09T16:04:34.986Z,22.14
2024-05-09T16:09:45.201Z,22.14
2024-05-09T16:14:50.380Z,22.15
2024-05-09T16:19:57.999Z,22.16
2024-05-09T16:25:02.455Z,22.14
2024-05-09T16:30:11.956Z,22.14
2024-05-09T16:35:19.597Z,22.15
2024-05-09T16:40:34.207Z,22.16
2024-05-09T16:45:44.295Z,22.16
2024-05-09T16:50:49.241Z,22.15
2024-05-09T16:55:53.600Z,22.13
2024-05-09T17:00:58.304Z,22.14
2024-05-09T17:06:03.001Z,22.12
2024-05-09T17:11:07.287Z,22.11
2024-05-09T17:16:13.072Z,22.11
2024-05-09T17:21:17.722Z,22.12
2024-05-09T17:26:22.172Z,22.13
2024-05-09T17:31:26.633Z,22.17
2024-05-09T17:36:31.516Z,22.21
2024-05-09T17:41:36.075Z,22.21
2024-05-09T17:46:40.520Z,22.22
2024-05-09T17:51:52.236Z,22.22
2024-05-09T17:56:58.098Z,22.23
2024-05-09T18:02:02.982Z,22.23
2024-05-09T18:07:07.678Z,22.25
2024-05-09T18:12:12.484Z,22.23
2024-05-09T18:17:18.854Z,22.24
2024-05-09T18:22:26.585Z,22.23
2024-05-09T18:27:30.914Z,22.22
2024-05-09T18:32:35.484Z,22.21
2024-05-09T18:37:40.570Z,22.19
2024-05-09T18:42:45.177Z,22.20
2024-05-09T18:47:55.501Z,22.20
2024-05-09T18:53:00.152Z,22.20
2024-05-09T18:58:05.596Z,22.19
2024-05-09T19:03:12.756Z,22.19
2024-05-09T19:08:18.889Z,22.19
2024-05-09T19:13:24.619Z,22.19
2024-05-09T19:18:30.438Z,22.19
2024-05-09T19:23:38.297Z,22.18
2024-05-09T19:28:45.753Z,22.18
2024-05-09T19:33:50.400Z,22.17
2024-05-09T19:38:55.042Z,22.17
2024-05-09T19:43:59.978Z,22.16
2024-05-09T19:49:05.952Z,22.16
2024-05-09T19:54:10.933Z,22.19
2024-05-09T19:59:15.790Z,22.16
2024-05-09T20:04:21.000Z,22.17
2024-05-09T20:09:25.625Z,22.17
2024-05-09T20:14:30.012Z,22.15
2024-05-09T20:19:34.882Z,22.15
2024-05-09T20:24:40.157Z,22.16
2024-05-09T20:29:44.849Z,22.15
2024-05-09T20:34:51.232Z,22.16
2024-05-09T20:39:55.489Z,22.14
2024-05-09T20:44:59.821Z,22.15
2024-05-09T20:50:09.067Z,22.14
2024-05-09T20:55:18.749Z,22.14
2024-05-09T21:00:30.258Z,22.14
2024-05-09T21:05:43.373Z,22.14
2024-05-09T21:10:48.545Z,22.14
2024-05-09T21:15:53.265Z,22.14
2024-05-09T21:20:58.011Z,22.13
2024-05-09T21:26:02.591Z,22.12
2024-05-09T21:31:08.713Z,22.12
2024-05-09T21:36:13.268Z,22.12
2024-05-09T21:41:17.950Z,22.11
2024-05-09T21:46:23.525Z,22.10
2024-05-09T21:51:28.095Z,22.11
2024-05-09T21:56:32.592Z,22.11
2024-05-09T22:01:37.297Z,22.09
2024-05-09T22:06:42.340Z,22.09
2024-05-09T22:11:48.067Z,22.09
2024-05-09T22:16:53.293Z,22.10
2024-05-09T22:21:58.046Z,22.09
2024-05-09T22:27:02.694Z,22.08
2024-05-09T22:32:07.582Z,22.07
2024-05-09T22:37:12.199Z,22.07
2024-05-09T22:42:17.137Z,22.07
2024-05-09T22:47:21.990Z,22.05
2024-05-09T22:52:26.762Z,22.04
2024-05-09T22:57:31.264Z,22.04
2024-05-09T23:02:36.320Z,22.04
2024-05-09T23:07:40.833Z,22.04
2024-05-09T23:12:45.802Z,22.05
2024-05-09T23:17:50.510Z,22.04
2024-05-09T23:22:54.953Z,22.02
2024-05-09T23:27:59.255Z,22.01
2024-05-09T23:33:03.789Z,22.00
2024-05-09T23:38:08.714Z,21.99
2024-05-09T23:43:13.859Z,21.97
2024-05-09T23:48:18.696Z,21.97
2024-05-09T23:53:22.872Z,21.97
2024-05-09T23:58:28.614Z,21.99
